createdAt,value
2017-12-14T00:00:39.984Z,20.60
2017-12-14T00:05:43.586Z,20.60
2017-12-14T00:10:46.476Z,20.60
2017-12-14T00:15:49.063Z,20.60
2017-12-14T00:20:52.037Z,20.60
2017-12-14T00:25:55.489Z,20.70
2017-12-14T00:30:59.015Z,20.70
2017-12-14T00:36:01.771Z,20.70
2017-12-14T00:41:04.588Z,20.70
2017-12-14T00:46:07.465Z,20.70
2017-12-14T00:51:11.978Z,20.70
2017-12-14T00:56:15.577Z,20.70
2017-12-14T01:01:18.479Z,20.80
2017-12-14T01:06:21.155Z,20.80
2017-12-14T01:11:23.938Z,20.80
2017-12-14T01:16:27.306Z,20.80
2017-12-14T01:21:29.947Z,20.80
2017-12-14T01:26:34.284Z,20.80
2017-12-14T01:31:36.931Z,20.80
2017-12-14T01:36:39.656Z,20.80
2017-12-14T01:41:43.107Z,20.80
2017-12-14T01:46:45.710Z,20.80
2017-12-14T01:51:48.369Z,20.70
2017-12-14T01:56:51.756Z,20.50
2017-12-14T02:01:54.354Z,20.50
2017-12-14T02:06:56.972Z,20.50
2017-12-14T02:12:00.317Z,20.40
2017-12-14T02:17:02.922Z,20.40
2017-12-14T02:22:06.220Z,20.40
2017-12-14T02:27:08.805Z,20.30
2017-12-14T02:32:11.401Z,20.30
2017-12-14T02:37:14.015Z,20.20
2017-12-14T02:42:16.615Z,20.20
2017-12-14T02:47:19.305Z,20.10
2017-12-14T02:52:22.553Z,20.10
2017-12-14T02:57:25.285Z,20.00
2017-12-14T03:02:28.708Z,20.00
2017-12-14T03:07:31.938Z,20.00
2017-12-14T03:12:35.251Z,19.90
2017-12-14T03:17:37.892Z,19.90
2017-12-14T03:22:40.501Z,19.90
2017-12-14T03:27:43.064Z,19.90
2017-12-14T03:32:45.628Z,19.90
2017-12-14T03:37:48.256Z,19.90
2017-12-14T03:42:50.809Z,19.80
2017-12-14T03:47:53.405Z,19.90
2017-12-14T03:52:56.102Z,19.80
2017-12-14T03:57:58.694Z,19.80
2017-12-14T04:03:01.323Z,19.80
2017-12-14T04:08:04.067Z,19.80
2017-12-14T04:13:06.714Z,19.80
2017-12-14T04:18:09.309Z,19.70
2017-12-14T04:23:11.938Z,19.70
2017-12-14T04:28:14.629Z,19.70
2017-12-14T04:33:17.228Z,19.80
2017-12-14T04:38:19.877Z,19.70
2017-12-14T04:43:22.519Z,19.70
2017-12-14T04:48:25.306Z,19.70
2017-12-14T04:53:27.931Z,19.60
2017-12-14T04:58:30.970Z,19.60
2017-12-14T05:03:33.606Z,19.60
2017-12-14T05:08:36.212Z,19.60
2017-12-14T05:13:39.655Z,19.60
2017-12-14T05:18:42.224Z,19.60
2017-12-14T05:23:44.818Z,19.50
2017-12-14T05:28:47.428Z,19.50
2017-12-14T05:33:50.039Z,19.50
2017-12-14T05:38:53.382Z,19.50
2017-12-14T05:43:55.961Z,19.40
2017-12-14T05:48:58.756Z,19.40
2017-12-14T05:54:01.371Z,19.40
2017-12-14T05:59:05.098Z,19.40
2017-12-14T06:04:07.706Z,19.40
2017-12-14T06:09:10.308Z,19.40
2017-12-14T06:14:12.983Z,19.30
2017-12-14T06:19:15.618Z,19.30
2017-12-14T06:24:18.245Z,19.30
2017-12-14T06:29:21.597Z,19.30
2017-12-14T06:34:24.239Z,19.30
2017-12-14T06:39:26.953Z,19.20
2017-12-14T06:44:29.542Z,19.20
2017-12-14T06:49:32.984Z,19.20
2017-12-14T06:54:35.590Z,19.20
2017-12-14T06:59:38.200Z,19.20
2017-12-14T07:04:40.778Z,19.20
2017-12-14T07:09:43.413Z,19.20
2017-12-14T07:14:46.259Z,19.10
2017-12-14T07:19:48.879Z,19.10
2017-12-14T07:24:52.629Z,19.10
2017-12-14T07:29:55.413Z,19.10
2017-12-14T07:34:57.995Z,19.00
2017-12-14T07:40:00.623Z,19.00
2017-12-14T07:45:15.165Z,19.00
2017-12-14T07:50:18.644Z,19.00
2017-12-14T07:55:21.301Z,19.00
2017-12-14T08:00:24.275Z,19.00
2017-12-14T08:05:27.016Z,19.00
2017-12-14T08:10:30.535Z,19.00
2017-12-14T08:15:33.899Z,19.00
2017-12-14T08:20:36.563Z,19.00
2017-12-14T08:25:39.191Z,19.00
2017-12-14T08:30:41.831Z,18.90
2017-12-14T08:35:44.481Z,18.90
2017-12-14T08:40:47.067Z,19.00
2017-12-14T08:45:51.201Z,19.00
2017-12-14T08:50:53.947Z,18.90
2017-12-14T08:55:56.558Z,18.90
2017-12-14T09:00:59.168Z,18.90
2017-12-14T09:06:02.523Z,19.00
2017-12-14T09:11:05.741Z,19.00
2017-12-14T09:16:08.328Z,19.00
2017-12-14T09:21:10.902Z,19.00
2017-12-14T09:26:13.460Z,19.10
2017-12-14T09:31:16.025Z,19.00
2017-12-14T09:36:18.969Z,19.00
2017-12-14T09:41:21.849Z,19.00
2017-12-14T09:46:26.785Z,19.00
2017-12-14T09:51:29.560Z,19.00
2017-12-14T09:56:32.195Z,19.00
2017-12-14T10:01:34.825Z,19.00
2017-12-14T10:06:37.438Z,19.10
2017-12-14T10:11:40.031Z,19.10
2017-12-14T10:16:43.119Z,19.10
2017-12-14T10:21:45.712Z,19.00
2017-12-14T10:26:49.061Z,19.10
2017-12-14T10:31:52.356Z,19.10
2017-12-14T10:36:54.980Z,19.00
2017-12-14T10:41:57.660Z,19.00
2017-12-14T10:47:01.190Z,19.00
2017-12-14T10:52:03.824Z,19.00
2017-12-14T10:57:06.663Z,19.00
2017-12-14T11:02:09.322Z,19.10
2017-12-14T11:07:12.767Z,19.10
2017-12-14T11:12:15.393Z,19.10
2017-12-14T11:17:18.666Z,19.10
2017-12-14T11:22:21.436Z,19.10
2017-12-14T11:27:24.104Z,19.10
2017-12-14T11:32:26.858Z,19.20
2017-12-14T11:37:29.605Z,19.10
2017-12-14T11:42:32.282Z,19.10
2017-12-14T11:47:35.880Z,19.10
2017-12-14T11:52:38.908Z,19.20
2017-12-14T11:57:41.543Z,19.20
2017-12-14T12:02:45.007Z,19.20
2017-12-14T12:07:47.676Z,19.10
2017-12-14T12:12:50.496Z,19.10
2017-12-14T12:17:53.147Z,19.10
2017-12-14T12:22:55.815Z,19.10
2017-12-14T12:27:58.477Z,19.10
2017-12-14T12:33:01.777Z,19.10
2017-12-14T12:38:05.217Z,19.20
2017-12-14T12:43:08.289Z,19.10
2017-12-14T12:48:11.626Z,19.20
2017-12-14T12:53:14.456Z,19.10
2017-12-14T12:58:17.090Z,19.10
2017-12-14T13:03:20.528Z,19.20
2017-12-14T13:08:23.116Z,19.10
2017-12-14T13:13:25.771Z,19.10
2017-12-14T13:18:28.389Z,19.10
2017-12-14T13:23:31.960Z,19.10
2017-12-14T13:28:34.526Z,19.10
2017-12-14T13:33:37.116Z,19.00
2017-12-14T13:38:39.701Z,19.00
2017-12-14T13:43:43.113Z,19.10
2017-12-14T13:48:45.819Z,19.10
2017-12-14T13:53:49.245Z,19.10
2017-12-14T13:58:51.819Z,19.10
2017-12-14T14:03:55.196Z,19.10
2017-12-14T14:08:57.858Z,19.10
2017-12-14T14:14:00.483Z,19.10
2017-12-14T14:19:03.187Z,19.10
2017-12-14T14:24:05.902Z,19.00
2017-12-14T14:29:08.825Z,18.90
2017-12-14T14:34:12.238Z,18.90
2017-12-14T14:39:15.921Z,18.90
2017-12-14T14:44:18.660Z,18.90
2017-12-14T14:49:21.360Z,18.80
2017-12-14T14:54:24.795Z,18.80
2017-12-14T14:59:27.546Z,18.80
2017-12-14T15:04:30.140Z,18.80
2017-12-14T15:09:32.769Z,18.80
2017-12-14T15:14:36.758Z,18.90
2017-12-14T15:19:39.435Z,18.80
2017-12-14T15:24:43.391Z,18.90
2017-12-14T15:29:48.035Z,18.90
2017-12-14T15:34:50.720Z,18.90
2017-12-14T15:39:53.360Z,18.90
2017-12-14T15:44:55.974Z,18.90
2017-12-14T15:49:58.612Z,18.90
2017-12-14T15:55:01.398Z,18.90
2017-12-14T16:00:04.012Z,18.90
2017-12-14T16:05:08.523Z,18.70
2017-12-14T16:10:11.162Z,18.70
2017-12-14T16:15:14.588Z,18.70
2017-12-14T16:20:18.162Z,18.70
2017-12-14T16:25:21.521Z,18.60
2017-12-14T16:30:24.152Z,18.60
2017-12-14T16:35:26.895Z,18.60
2017-12-14T16:40:30.184Z,18.60
2017-12-14T16:45:34.093Z,18.60
2017-12-14T16:50:37.508Z,18.60
2017-12-14T16:55:40.724Z,18.60
2017-12-14T17:00:43.325Z,18.60
2017-12-14T17:05:46.413Z,18.60
2017-12-14T17:10:49.039Z,18.60
2017-12-14T17:15:51.601Z,18.50
2017-12-14T17:20:54.195Z,18.50
2017-12-14T17:25:57.093Z,18.50
2017-12-14T17:30:59.768Z,18.50
2017-12-14T17:36:02.439Z,18.50
2017-12-14T17:41:05.268Z,18.50
2017-12-14T17:46:07.932Z,18.40
2017-12-14T17:51:10.609Z,18.40
2017-12-14T17:56:13.200Z,18.40
2017-12-14T18:01:15.944Z,18.40
2017-12-14T18:06:18.614Z,18.40
2017-12-14T18:11:21.859Z,18.40
2017-12-14T18:16:25.236Z,18.40
2017-12-14T18:21:27.833Z,18.40
2017-12-14T18:26:30.466Z,18.40
2017-12-14T18:31:33.156Z,18.40
2017-12-14T18:36:36.162Z,18.40
2017-12-14T18:41:40.129Z,18.30
2017-12-14T18:46:43.122Z,18.30
2017-12-14T18:51:46.019Z,18.30
2017-12-14T18:56:48.809Z,18.30
2017-12-14T19:01:51.542Z,18.30
2017-12-14T19:06:54.150Z,18.30
2017-12-14T19:11:57.578Z,18.30
2017-12-14T19:17:00.408Z,18.30
2017-12-14T19:22:03.039Z,18.30
2017-12-14T19:27:05.723Z,18.30
2017-12-14T19:32:10.944Z,18.30
2017-12-14T19:37:14.296Z,18.30
2017-12-14T19:42:18.315Z,18.30
2017-12-14T19:47:20.979Z,18.20
2017-12-14T19:52:24.392Z,18.20
2017-12-14T19:57:27.832Z,18.20
2017-12-14T20:02:30.487Z,18.20
2017-12-14T20:07:33.178Z,18.20
2017-12-14T20:12:35.830Z,18.20
2017-12-14T20:17:38.468Z,18.20
2017-12-14T20:22:41.112Z,18.20
2017-12-14T20:27:43.694Z,18.20
2017-12-14T20:32:46.304Z,18.20
2017-12-14T20:37:48.870Z,18.20
2017-12-14T20:42:51.484Z,18.10
2017-12-14T20:47:54.083Z,18.10
2017-12-14T20:52:56.677Z,18.10
2017-12-14T20:57:59.246Z,18.10
2017-12-14T21:03:01.873Z,18.10
2017-12-14T21:08:04.535Z,18.10
2017-12-14T21:13:07.371Z,18.10
2017-12-14T21:18:09.975Z,18.10
2017-12-14T21:23:12.766Z,18.10
2017-12-14T21:28:16.081Z,17.50
2017-12-14T21:33:21.186Z,16.70
2017-12-14T21:38:24.033Z,17.10
2017-12-14T21:43:27.102Z,17.70
2017-12-14T21:48:29.922Z,18.00
2017-12-14T21:53:32.525Z,18.30
2017-12-14T21:58:35.908Z,18.60
2017-12-14T22:03:38.513Z,18.60
2017-12-14T22:08:41.849Z,18.80
2017-12-14T22:13:44.435Z,18.80
2017-12-14T22:18:47.142Z,18.90
2017-12-14T22:23:49.764Z,19.00
2017-12-14T22:28:54.075Z,19.10
2017-12-14T22:33:57.584Z,19.10
2017-12-14T22:39:00.580Z,19.20
2017-12-14T22:44:03.186Z,19.20
2017-12-14T22:49:05.819Z,19.30
2017-12-14T22:54:08.410Z,19.20
2017-12-14T22:59:11.031Z,19.10
2017-12-14T23:04:14.269Z,19.20
2017-12-14T23:09:16.928Z,19.20
2017-12-14T23:14:19.551Z,19.10
2017-12-14T23:19:22.936Z,19.20
2017-12-14T23:24:25.535Z,19.10
2017-12-14T23:29:28.186Z,19.20
2017-12-14T23:34:31.600Z,19.20
2017-12-14T23:39:34.886Z,19.20
2017-12-14T23:44:38.239Z,19.20
2017-12-14T23:49:40.976Z,19.30
2017-12-14T23:54:43.815Z,19.30
2017-12-14T23:59:46.535Z,19.30
